createdAt,value
2018-12-18T00:07:14.011Z,5.40
2018-12-18T00:17:16.483Z,5.30
2018-12-18T00:27:18.940Z,5.10
2018-12-18T00:37:21.402Z,5.00
2018-12-18T00:47:23.899Z,4.90
2018-12-18T00:57:26.395Z,4.80
2018-12-18T01:07:28.924Z,4.90
2018-12-18T01:17:31.384Z,5.00
2018-12-18T01:27:33.843Z,5.10
2018-12-18T01:37:36.333Z,5.10
2018-12-18T01:47:38.807Z,5.10
2018-12-18T01:57:41.260Z,5.00
2018-12-18T02:07:43.742Z,4.90
2018-12-18T02:17:46.212Z,4.90
2018-12-18T02:27:48.659Z,4.90
2018-12-18T02:37:51.155Z,4.80
2018-12-18T02:47:53.628Z,4.90
2018-12-18T02:57:56.367Z,4.90
2018-12-18T03:07:58.876Z,4.90
2018-12-18T03:18:01.443Z,4.80
2018-12-18T03:28:03.905Z,4.70
2018-12-18T03:38:06.409Z,4.50
2018-12-18T03:48:08.874Z,4.40
2018-12-18T03:58:11.332Z,4.40
2018-12-18T04:08:13.817Z,4.50
2018-12-18T04:18:16.306Z,4.40
2018-12-18T04:28:18.764Z,4.50
2018-12-18T04:38:21.224Z,4.70
2018-12-18T04:48:23.707Z,4.80
2018-12-18T04:58:26.163Z,4.90
2018-12-18T05:08:28.687Z,4.90
2018-12-18T05:18:31.156Z,5.00
2018-12-18T05:28:33.703Z,5.10
2018-12-18T05:38:36.168Z,5.20
2018-12-18T05:48:38.763Z,5.30
2018-12-18T05:58:41.287Z,5.40
2018-12-18T06:08:43.751Z,5.40
2018-12-18T06:18:46.223Z,5.50
2018-12-18T06:28:48.684Z,5.50
2018-12-18T06:38:51.160Z,5.70
2018-12-18T06:48:53.625Z,5.60
2018-12-18T06:58:56.088Z,5.50
2018-12-18T07:08:58.551Z,5.40
2018-12-18T07:19:01.051Z,5.30
2018-12-18T07:29:03.648Z,5.20
2018-12-18T07:39:07.387Z,5.20
2018-12-18T07:49:10.064Z,5.00
2018-12-18T07:59:12.787Z,5.00
2018-12-18T08:09:15.444Z,5.10
2018-12-18T08:19:17.912Z,5.20
2018-12-18T08:29:20.720Z,5.30
2018-12-18T08:39:23.401Z,5.40
2018-12-18T08:49:26.127Z,5.60
2018-12-18T08:59:28.855Z,5.80
2018-12-18T09:09:31.505Z,6.10
2018-12-18T09:19:33.972Z,6.10
2018-12-18T09:29:36.739Z,6.10
2018-12-18T09:39:41.208Z,6.20
2018-12-18T09:49:43.675Z,6.50
2018-12-18T09:59:46.464Z,6.70
2018-12-18T10:09:49.199Z,7.00
2018-12-18T10:19:51.921Z,7.30
2018-12-18T10:29:54.635Z,7.50
2018-12-18T10:39:57.407Z,7.50
2018-12-18T10:50:00.115Z,7.60
2018-12-18T11:00:04.862Z,7.60
2018-12-18T11:10:07.411Z,7.70
2018-12-18T11:20:09.892Z,8.10
2018-12-18T11:30:12.485Z,8.10
2018-12-18T11:40:15.303Z,8.30
2018-12-18T11:50:18.030Z,8.60
2018-12-18T12:00:20.859Z,9.20
2018-12-18T12:10:23.800Z,9.30
2018-12-18T12:20:26.511Z,9.50
2018-12-18T12:30:29.016Z,9.70
2018-12-18T12:40:31.624Z,9.70
2018-12-18T12:50:34.124Z,9.50
2018-12-18T13:00:36.815Z,9.60
2018-12-18T13:10:39.549Z,9.40
2018-12-18T13:20:42.428Z,9.40
2018-12-18T13:30:45.003Z,9.40
2018-12-18T13:40:47.735Z,9.30
2018-12-18T13:50:50.202Z,9.10
2018-12-18T14:00:52.885Z,9.10
2018-12-18T14:10:55.327Z,9.00
2018-12-18T14:20:57.796Z,8.90
2018-12-18T14:31:00.406Z,8.70
2018-12-18T14:41:03.070Z,8.50
2018-12-18T14:51:05.564Z,8.40
2018-12-18T15:01:08.015Z,8.30
2018-12-18T15:11:10.518Z,8.10
2018-12-18T15:21:12.991Z,7.90
2018-12-18T15:31:15.557Z,7.70
2018-12-18T15:41:18.091Z,7.50
2018-12-18T15:51:20.713Z,7.90
2018-12-18T16:01:23.171Z,7.30
2018-12-18T16:11:25.635Z,7.10
2018-12-18T16:21:28.185Z,6.90
2018-12-18T16:31:31.648Z,6.60
2018-12-18T16:41:34.139Z,6.40
2018-12-18T16:51:36.836Z,6.20
2018-12-18T17:01:39.340Z,6.00
2018-12-18T17:11:41.800Z,5.90
2018-12-18T17:21:44.263Z,5.80
2018-12-18T17:31:46.788Z,5.80
2018-12-18T17:41:49.243Z,5.80
2018-12-18T17:51:51.708Z,5.70
2018-12-18T18:01:54.173Z,5.50
2018-12-18T18:11:56.843Z,5.40
2018-12-18T18:21:59.307Z,5.50
2018-12-18T18:32:01.851Z,5.60
2018-12-18T18:42:04.328Z,5.60
2018-12-18T18:52:06.985Z,5.60
2018-12-18T19:02:09.439Z,5.60
2018-12-18T19:12:11.973Z,5.60
2018-12-18T19:22:15.167Z,5.60
2018-12-18T19:32:17.628Z,5.60
2018-12-18T19:42:20.598Z,5.60
2018-12-18T19:52:23.091Z,5.60
2018-12-18T20:02:25.559Z,5.60
2018-12-18T20:12:28.063Z,5.50
2018-12-18T20:22:30.898Z,5.40
2018-12-18T20:32:33.357Z,5.10
2018-12-18T20:42:35.827Z,5.00
2018-12-18T20:52:38.299Z,4.80
2018-12-18T21:02:40.808Z,4.90
2018-12-18T21:12:43.259Z,4.70
2018-12-18T21:22:45.746Z,4.70
2018-12-18T21:32:48.322Z,4.70
2018-12-18T21:42:50.792Z,4.70
2018-12-18T21:52:53.498Z,4.70
2018-12-18T22:02:55.959Z,4.70
2018-12-18T22:12:58.420Z,4.70
2018-12-18T22:23:00.915Z,4.80
2018-12-18T22:33:03.386Z,4.80
2018-12-18T22:43:05.844Z,4.70
2018-12-18T22:53:08.328Z,4.50
2018-12-18T23:03:10.822Z,4.40
2018-12-18T23:13:15.224Z,4.30
2018-12-18T23:23:17.691Z,4.20
2018-12-18T23:33:20.156Z,4.00
2018-12-18T23:43:22.665Z,3.90
2018-12-18T23:53:25.127Z,3.70
